createdAt,value
2022-11-17T00:00:43.512Z,99.20
2022-11-17T00:03:15.139Z,99.20
2022-11-17T00:05:43.233Z,99.10
2022-11-17T00:08:11.266Z,99.20
2022-11-17T00:10:39.531Z,99.10
2022-11-17T00:13:25.131Z,99.10
2022-11-17T00:15:54.579Z,99.10
2022-11-17T00:18:40.333Z,99.10
2022-11-17T00:21:28.083Z,99.10
2022-11-17T00:23:56.780Z,99.20
2022-11-17T00:26:26.388Z,99.20
2022-11-17T00:28:55.326Z,99.10
2022-11-17T00:31:43.796Z,99.10
2022-11-17T00:34:15.178Z,99.20
2022-11-17T00:36:44.808Z,99.10
2022-11-17T00:39:15.114Z,99.10
2022-11-17T00:41:43.338Z,99.20
2022-11-17T00:44:11.529Z,99.20
2022-11-17T00:46:41.679Z,99.20
2022-11-17T00:49:10.862Z,99.20
2022-11-17T00:51:39.756Z,99.10
2022-11-17T00:54:09.497Z,99.00
2022-11-17T00:56:37.625Z,99.10
2022-11-17T00:59:05.866Z,99.10
2022-11-17T01:01:34.106Z,99.10
2022-11-17T01:04:04.758Z,99.10
2022-11-17T01:06:34.841Z,99.00
2022-11-17T01:09:05.171Z,99.00
2022-11-17T01:11:33.626Z,98.90
2022-11-17T01:14:02.612Z,99.00
2022-11-17T01:16:32.262Z,99.00
2022-11-17T01:19:02.132Z,98.90
2022-11-17T01:21:33.156Z,98.90
2022-11-17T01:24:02.700Z,98.90
2022-11-17T01:26:33.125Z,99.00
2022-11-17T01:29:01.783Z,99.10
2022-11-17T01:31:31.804Z,99.10
2022-11-17T01:34:00.295Z,99.10
2022-11-17T01:36:52.362Z,98.90
2022-11-17T01:39:21.070Z,99.00
2022-11-17T01:41:49.200Z,99.00
2022-11-17T01:44:52.365Z,99.10
2022-11-17T01:47:24.196Z,99.10
2022-11-17T01:49:55.873Z,99.10
2022-11-17T01:52:26.404Z,99.10
2022-11-17T01:54:56.965Z,99.10
2022-11-17T01:57:30.047Z,99.10
2022-11-17T02:00:02.488Z,99.10
2022-11-17T02:02:34.135Z,99.20
2022-11-17T02:05:08.564Z,99.20
2022-11-17T02:07:40.442Z,99.20
2022-11-17T02:10:09.432Z,99.20
2022-11-17T02:12:38.172Z,99.10
2022-11-17T02:15:07.076Z,99.10
2022-11-17T02:17:37.590Z,99.10
2022-11-17T02:20:10.103Z,99.10
2022-11-17T02:23:15.901Z,99.00
2022-11-17T02:26:16.147Z,99.00
2022-11-17T02:28:50.858Z,99.00
2022-11-17T02:31:27.527Z,99.10
2022-11-17T02:34:08.293Z,99.00
2022-11-17T02:36:43.312Z,99.00
2022-11-17T02:39:16.014Z,99.00
2022-11-17T02:41:47.762Z,99.00
2022-11-17T02:44:22.852Z,99.00
2022-11-17T02:46:55.649Z,99.00
2022-11-17T02:49:26.825Z,99.00
2022-11-17T02:51:57.894Z,99.10
2022-11-17T02:54:30.264Z,99.00
2022-11-17T02:56:58.797Z,99.10
2022-11-17T02:59:32.081Z,99.10
2022-11-17T03:02:23.894Z,99.10
2022-11-17T03:05:06.712Z,99.10
2022-11-17T03:07:47.434Z,99.00
2022-11-17T03:10:18.884Z,99.00
2022-11-17T03:12:53.673Z,99.00
2022-11-17T03:15:32.043Z,98.90
2022-11-17T03:18:08.084Z,99.00
2022-11-17T03:20:42.556Z,98.90
2022-11-17T03:23:14.869Z,98.90
2022-11-17T03:25:46.886Z,99.00
2022-11-17T03:28:18.089Z,99.00
2022-11-17T03:30:50.401Z,99.00
2022-11-17T03:33:23.099Z,99.00
2022-11-17T03:35:58.093Z,98.80
2022-11-17T03:38:28.858Z,98.30
2022-11-17T03:40:59.362Z,98.60
2022-11-17T03:43:28.874Z,98.70
2022-11-17T03:46:04.736Z,98.60
2022-11-17T03:48:37.253Z,98.50
2022-11-17T03:51:09.357Z,98.60
2022-11-17T03:53:38.545Z,98.90
2022-11-17T03:56:16.005Z,98.80
2022-11-17T03:58:51.257Z,98.90
2022-11-17T04:01:22.035Z,99.00
2022-11-17T04:03:50.353Z,99.00
2022-11-17T04:06:18.484Z,98.80
2022-11-17T04:08:46.608Z,98.90
2022-11-17T04:11:32.467Z,99.00
2022-11-17T04:14:18.095Z,99.10
2022-11-17T04:16:47.566Z,99.10
2022-11-17T04:19:15.709Z,98.90
2022-11-17T04:21:43.818Z,98.60
2022-11-17T04:24:11.880Z,98.70
2022-11-17T04:26:57.627Z,98.80
2022-11-17T04:29:25.670Z,98.80
2022-11-17T04:31:55.116Z,98.80
2022-11-17T04:34:23.379Z,98.80
2022-11-17T04:36:51.437Z,98.90
2022-11-17T04:39:19.549Z,99.00
2022-11-17T04:41:57.468Z,99.10
2022-11-17T04:44:27.239Z,99.40
2022-11-17T04:46:57.407Z,99.10
2022-11-17T04:49:26.796Z,99.10
2022-11-17T04:51:55.302Z,99.20
2022-11-17T04:54:25.194Z,99.30
2022-11-17T04:56:54.492Z,99.30
2022-11-17T04:59:23.014Z,99.20
2022-11-17T05:01:51.675Z,99.40
2022-11-17T05:04:36.489Z,99.40
2022-11-17T05:07:05.198Z,99.30
2022-11-17T05:09:33.391Z,99.30
2022-11-17T05:12:19.071Z,99.30
2022-11-17T05:14:50.441Z,99.30
2022-11-17T05:17:19.035Z,99.30
2022-11-17T05:19:49.788Z,99.40
2022-11-17T05:22:37.270Z,99.40
2022-11-17T05:25:06.384Z,99.40
2022-11-17T05:27:34.946Z,99.20
2022-11-17T05:30:03.451Z,99.20
2022-11-17T05:32:31.483Z,98.90
2022-11-17T05:35:00.984Z,99.10
2022-11-17T05:37:29.388Z,99.20
2022-11-17T05:39:57.481Z,98.80
2022-11-17T05:42:25.546Z,99.10
2022-11-17T05:44:53.849Z,99.00
2022-11-17T05:47:21.910Z,98.80
2022-11-17T05:49:50.034Z,98.90
2022-11-17T05:52:19.381Z,98.80
2022-11-17T05:54:47.703Z,99.10
2022-11-17T05:57:22.078Z,99.20
2022-11-17T05:59:53.229Z,98.90
2022-11-17T06:02:25.318Z,99.20
2022-11-17T06:04:53.584Z,99.20
2022-11-17T06:07:23.260Z,98.70
2022-11-17T06:09:52.173Z,98.70
2022-11-17T06:12:20.344Z,98.80
2022-11-17T06:14:49.193Z,99.10
2022-11-17T06:17:22.754Z,99.40
2022-11-17T06:19:55.622Z,99.60
2022-11-17T06:22:27.045Z,99.70
2022-11-17T06:24:56.376Z,99.80
2022-11-17T06:27:25.864Z,99.90
2022-11-17T06:29:54.852Z,99.90
2022-11-17T06:32:23.485Z,99.90
2022-11-17T06:34:55.848Z,99.80
2022-11-17T06:37:26.179Z,99.70
2022-11-17T06:39:54.512Z,99.70
2022-11-17T06:42:43.920Z,99.60
2022-11-17T06:45:12.914Z,99.60
2022-11-17T06:47:41.255Z,99.70
2022-11-17T06:50:10.535Z,99.80
2022-11-17T06:52:40.136Z,99.70
2022-11-17T06:55:09.682Z,99.80
2022-11-17T06:57:37.762Z,99.80
2022-11-17T07:00:07.110Z,99.80
2022-11-17T07:02:36.730Z,99.70
2022-11-17T07:05:05.374Z,99.70
2022-11-17T07:07:33.589Z,99.70
2022-11-17T07:10:03.271Z,99.80
2022-11-17T07:12:31.364Z,99.70
2022-11-17T07:14:59.344Z,99.70
2022-11-17T07:17:29.045Z,99.70
2022-11-17T07:19:57.105Z,99.70
2022-11-17T07:22:25.175Z,99.70
2022-11-17T07:24:53.258Z,99.60
2022-11-17T07:27:22.926Z,99.60
2022-11-17T07:30:16.432Z,99.60
2022-11-17T07:32:44.505Z,99.60
2022-11-17T07:35:12.567Z,99.60
2022-11-17T07:37:40.647Z,99.60
2022-11-17T07:40:10.328Z,99.60
2022-11-17T07:42:39.718Z,99.60
2022-11-17T07:45:09.789Z,99.50
2022-11-17T07:47:37.850Z,99.30
2022-11-17T07:50:06.733Z,98.90
2022-11-17T07:52:40.185Z,99.00
2022-11-17T07:55:09.872Z,99.20
2022-11-17T07:57:39.326Z,99.30
2022-11-17T08:00:08.704Z,99.40
2022-11-17T08:02:40.446Z,99.40
2022-11-17T08:05:09.367Z,99.40
2022-11-17T08:07:37.554Z,99.40
2022-11-17T08:10:06.528Z,99.30
2022-11-17T08:12:34.654Z,99.20
2022-11-17T08:15:04.179Z,99.30
2022-11-17T08:17:32.252Z,99.20
2022-11-17T08:20:00.312Z,99.20
2022-11-17T08:22:29.139Z,99.30
2022-11-17T08:24:57.175Z,99.30
2022-11-17T08:27:25.466Z,99.30
2022-11-17T08:29:53.496Z,99.30
2022-11-17T08:32:23.407Z,99.30
2022-11-17T08:34:51.520Z,99.10
2022-11-17T08:37:19.568Z,99.10
2022-11-17T08:39:47.703Z,99.20
2022-11-17T08:42:17.299Z,99.20
2022-11-17T08:44:45.599Z,99.30
2022-11-17T08:47:13.742Z,99.30
2022-11-17T08:49:43.097Z,99.30
2022-11-17T08:52:11.205Z,99.20
2022-11-17T08:54:39.335Z,99.20
2022-11-17T08:57:07.475Z,99.30
2022-11-17T08:59:35.593Z,99.20
2022-11-17T09:02:03.801Z,99.20
2022-11-17T09:04:31.962Z,99.20
2022-11-17T09:07:01.525Z,99.20
2022-11-17T09:09:31.792Z,99.00
2022-11-17T09:12:00.780Z,98.90
2022-11-17T09:14:31.516Z,98.80
2022-11-17T09:16:59.649Z,98.90
2022-11-17T09:19:27.898Z,98.80
2022-11-17T09:21:56.026Z,98.90
2022-11-17T09:24:26.611Z,99.00
2022-11-17T09:26:57.481Z,99.00
2022-11-17T09:29:25.964Z,98.90
2022-11-17T09:31:54.111Z,98.70
2022-11-17T09:34:22.552Z,98.70
2022-11-17T09:36:50.648Z,98.80
2022-11-17T09:39:18.707Z,98.90
2022-11-17T09:41:51.274Z,98.70
2022-11-17T09:44:40.394Z,98.50
2022-11-17T09:47:17.806Z,98.60
2022-11-17T09:49:58.429Z,98.70
2022-11-17T09:52:31.789Z,98.90
2022-11-17T09:55:03.413Z,98.90
2022-11-17T09:57:39.039Z,98.80
2022-11-17T10:00:14.774Z,99.00
2022-11-17T10:02:43.026Z,98.80
2022-11-17T10:05:16.131Z,99.00
2022-11-17T10:07:49.831Z,98.90
2022-11-17T10:10:21.627Z,98.40
2022-11-17T10:12:57.886Z,98.70
2022-11-17T10:15:31.737Z,98.80
2022-11-17T10:17:59.840Z,99.10
2022-11-17T10:20:28.009Z,98.80
2022-11-17T10:22:57.737Z,98.70
2022-11-17T10:25:38.026Z,98.90
2022-11-17T10:28:09.385Z,98.70
2022-11-17T10:30:37.529Z,98.50
2022-11-17T10:33:05.894Z,98.40
2022-11-17T10:35:35.066Z,98.10
2022-11-17T10:38:06.824Z,98.00
2022-11-17T10:40:48.270Z,98.10
2022-11-17T10:43:26.853Z,98.20
2022-11-17T10:45:57.533Z,98.10
2022-11-17T10:48:29.181Z,97.50
2022-11-17T10:50:58.859Z,97.80
2022-11-17T10:53:34.976Z,97.90
2022-11-17T10:56:13.213Z,98.10
2022-11-17T10:59:04.914Z,98.20
2022-11-17T11:01:35.406Z,98.10
2022-11-17T11:04:05.552Z,97.90
2022-11-17T11:06:35.137Z,97.90
2022-11-17T11:09:10.726Z,97.60
2022-11-17T11:11:44.320Z,97.30
2022-11-17T11:14:19.541Z,97.50
2022-11-17T11:16:50.798Z,97.40
2022-11-17T11:19:20.834Z,97.50
2022-11-17T11:22:04.527Z,97.70
2022-11-17T11:24:41.026Z,97.50
2022-11-17T11:27:31.855Z,97.50
2022-11-17T11:30:05.344Z,97.70
2022-11-17T11:32:42.020Z,97.80
2022-11-17T11:35:45.123Z,97.80
2022-11-17T11:38:35.335Z,97.90
2022-11-17T11:41:22.355Z,97.70
2022-11-17T11:44:04.537Z,97.70
2022-11-17T11:46:47.605Z,97.80
2022-11-17T11:49:28.350Z,97.80
2022-11-17T11:51:57.261Z,97.70
2022-11-17T11:54:33.879Z,97.70
2022-11-17T11:57:02.878Z,97.80
2022-11-17T11:59:38.902Z,97.80
2022-11-17T12:02:23.603Z,97.80
2022-11-17T12:04:59.767Z,97.80
2022-11-17T12:07:37.346Z,97.80
2022-11-17T12:10:12.724Z,97.90
2022-11-17T12:12:42.943Z,97.40
2022-11-17T12:15:30.999Z,97.70
2022-11-17T12:18:03.830Z,97.80
2022-11-17T12:20:56.961Z,97.00
2022-11-17T12:23:53.743Z,97.00
2022-11-17T12:26:24.427Z,97.40
2022-11-17T12:29:25.582Z,97.50
2022-11-17T12:31:55.244Z,97.60
2022-11-17T12:34:27.423Z,97.80
2022-11-17T12:37:26.140Z,97.70
2022-11-17T12:40:06.317Z,97.90
2022-11-17T12:42:35.437Z,97.80
2022-11-17T12:45:08.334Z,97.70
2022-11-17T12:47:38.708Z,97.90
2022-11-17T12:50:36.533Z,98.00
2022-11-17T12:53:23.915Z,98.00
2022-11-17T12:56:17.194Z,98.10
2022-11-17T12:58:57.807Z,98.20
2022-11-17T13:01:37.046Z,98.30
2022-11-17T13:04:11.393Z,98.30
2022-11-17T13:07:00.179Z,98.20
2022-11-17T13:09:35.264Z,98.20
2022-11-17T13:12:05.528Z,98.30
2022-11-17T13:14:34.828Z,98.20
2022-11-17T13:17:03.519Z,98.10
2022-11-17T13:19:37.654Z,98.00
2022-11-17T13:22:15.928Z,98.00
2022-11-17T13:24:46.314Z,98.10
2022-11-17T13:27:22.973Z,98.10
2022-11-17T13:29:51.101Z,98.20
2022-11-17T13:32:22.024Z,98.40
2022-11-17T13:34:53.155Z,98.20
2022-11-17T13:37:24.520Z,98.20
2022-11-17T13:39:57.644Z,98.20
2022-11-17T13:42:27.863Z,98.50
2022-11-17T13:44:58.431Z,98.20
2022-11-17T13:47:43.747Z,98.30
2022-11-17T13:50:34.380Z,98.30
2022-11-17T13:53:07.125Z,98.40
2022-11-17T13:55:36.432Z,98.20
2022-11-17T13:58:07.018Z,98.20
2022-11-17T14:00:35.564Z,97.80
2022-11-17T14:03:07.039Z,97.30
2022-11-17T14:05:35.500Z,97.40
2022-11-17T14:08:22.983Z,97.40
2022-11-17T14:10:51.112Z,97.50
2022-11-17T14:13:26.833Z,97.40
2022-11-17T14:15:58.307Z,97.50
2022-11-17T14:18:34.073Z,97.50
2022-11-17T14:21:11.550Z,97.60
2022-11-17T14:23:41.771Z,97.60
2022-11-17T14:26:24.487Z,97.50
2022-11-17T14:28:53.418Z,97.60
2022-11-17T14:31:21.476Z,97.40
2022-11-17T14:33:50.525Z,97.50
2022-11-17T14:36:19.016Z,97.70
2022-11-17T14:38:48.863Z,97.90
2022-11-17T14:41:18.128Z,97.90
2022-11-17T14:43:46.762Z,97.60
2022-11-17T14:46:23.100Z,97.30
2022-11-17T14:48:51.463Z,96.90
2022-11-17T14:51:20.579Z,97.00
2022-11-17T14:53:49.963Z,97.30
2022-11-17T14:56:20.087Z,97.10
2022-11-17T14:58:48.896Z,97.00
2022-11-17T15:01:18.652Z,97.00
2022-11-17T15:03:47.418Z,96.90
2022-11-17T15:06:19.915Z,97.00
2022-11-17T15:09:16.474Z,97.10
2022-11-17T15:11:44.924Z,97.00
2022-11-17T15:14:13.138Z,96.90
2022-11-17T15:16:41.422Z,96.30
2022-11-17T15:19:09.513Z,96.60
2022-11-17T15:21:37.736Z,97.00
2022-11-17T15:24:06.496Z,97.20
2022-11-17T15:26:36.081Z,97.40
2022-11-17T15:29:04.236Z,97.50
2022-11-17T15:31:32.337Z,97.50
2022-11-17T15:34:02.227Z,97.60
2022-11-17T15:36:31.969Z,97.50
2022-11-17T15:39:00.277Z,98.00
2022-11-17T15:41:32.567Z,98.00
2022-11-17T15:44:02.366Z,98.10
2022-11-17T15:46:30.422Z,98.20
2022-11-17T15:48:58.484Z,98.30
2022-11-17T15:51:28.466Z,98.40
2022-11-17T15:53:59.209Z,98.30
2022-11-17T15:56:28.693Z,98.50
2022-11-17T15:58:58.994Z,98.70
2022-11-17T16:01:30.891Z,98.70
2022-11-17T16:04:01.038Z,98.00
2022-11-17T16:06:30.017Z,98.20
2022-11-17T16:08:58.685Z,98.40
2022-11-17T16:11:27.690Z,98.60
2022-11-17T16:14:20.679Z,98.70
2022-11-17T16:16:50.164Z,98.80
2022-11-17T16:19:18.940Z,98.60
2022-11-17T16:21:47.383Z,98.70
2022-11-17T16:24:15.571Z,98.90
2022-11-17T16:26:44.758Z,99.20
2022-11-17T16:29:13.522Z,98.90
2022-11-17T16:31:41.800Z,99.10
2022-11-17T16:34:15.396Z,99.00
2022-11-17T16:36:44.907Z,99.10
2022-11-17T16:39:16.580Z,99.30
2022-11-17T16:41:46.454Z,99.30
2022-11-17T16:44:17.045Z,99.30
2022-11-17T16:46:47.175Z,99.40
2022-11-17T16:49:19.818Z,99.60
2022-11-17T16:51:49.819Z,99.20
2022-11-17T16:54:18.567Z,99.10
2022-11-17T16:56:47.393Z,99.00
2022-11-17T16:59:16.740Z,99.00
2022-11-17T17:01:45.148Z,99.40
2022-11-17T17:04:13.351Z,99.30
2022-11-17T17:06:44.288Z,99.20
2022-11-17T17:09:15.027Z,99.10
2022-11-17T17:11:43.905Z,99.10
2022-11-17T17:14:15.319Z,99.30
2022-11-17T17:16:43.920Z,99.40
2022-11-17T17:19:13.404Z,99.70
2022-11-17T17:21:43.934Z,99.90
2022-11-17T17:24:12.051Z,99.90
2022-11-17T17:26:40.612Z,99.80
2022-11-17T17:29:09.003Z,99.60
2022-11-17T17:31:39.283Z,99.70
2022-11-17T17:34:08.341Z,99.80
2022-11-17T17:36:38.445Z,99.90
2022-11-17T17:39:08.457Z,99.90
2022-11-17T17:41:40.946Z,99.90
2022-11-17T17:44:10.211Z,99.90
2022-11-17T17:46:39.652Z,99.90
2022-11-17T17:49:10.446Z,99.90
2022-11-17T17:51:41.679Z,99.90
2022-11-17T17:54:16.607Z,99.90
2022-11-17T17:56:45.072Z,99.90
2022-11-17T17:59:14.572Z,99.90
2022-11-17T18:01:45.893Z,99.90
2022-11-17T18:04:16.272Z,99.90
2022-11-17T18:06:47.475Z,99.90
2022-11-17T18:09:19.973Z,99.90
2022-11-17T18:11:50.518Z,99.90
2022-11-17T18:14:22.352Z,99.90
2022-11-17T18:16:51.123Z,99.90
2022-11-17T18:19:19.786Z,99.90
2022-11-17T18:21:47.911Z,99.90
2022-11-17T18:24:17.533Z,99.90
2022-11-17T18:26:45.658Z,99.90
2022-11-17T18:29:16.249Z,99.90
2022-11-17T18:31:46.564Z,99.90
2022-11-17T18:34:16.483Z,99.90
2022-11-17T18:36:44.546Z,99.90
2022-11-17T18:39:12.593Z,99.90
2022-11-17T18:41:42.379Z,99.90
2022-11-17T18:44:13.165Z,99.90
2022-11-17T18:46:42.086Z,99.90
2022-11-17T18:49:10.490Z,99.90
2022-11-17T18:51:38.758Z,99.90
2022-11-17T18:54:07.846Z,99.90
2022-11-17T18:56:37.431Z,99.90
2022-11-17T18:59:11.607Z,99.90
2022-11-17T19:01:41.631Z,99.90
2022-11-17T19:04:10.783Z,99.90
2022-11-17T19:06:38.907Z,99.90
2022-11-17T19:09:08.296Z,99.90
2022-11-17T19:11:36.666Z,99.90
2022-11-17T19:14:08.142Z,99.90
2022-11-17T19:16:44.936Z,99.90
2022-11-17T19:19:15.172Z,99.90
2022-11-17T19:21:44.537Z,99.90
2022-11-17T19:24:13.043Z,99.90
2022-11-17T19:26:41.170Z,99.90
2022-11-17T19:29:17.283Z,99.90
2022-11-17T19:31:46.079Z,99.90
2022-11-17T19:34:14.317Z,99.90
2022-11-17T19:36:44.381Z,99.90
2022-11-17T19:39:14.636Z,99.90
2022-11-17T19:41:43.713Z,99.90
2022-11-17T19:44:13.294Z,99.90
2022-11-17T19:46:42.580Z,99.90
2022-11-17T19:49:12.497Z,99.90
2022-11-17T19:51:41.278Z,99.90
2022-11-17T19:54:10.403Z,99.90
2022-11-17T19:56:39.377Z,99.90
2022-11-17T19:59:10.998Z,99.90
2022-11-17T20:01:43.860Z,99.90
2022-11-17T20:04:11.983Z,99.90
2022-11-17T20:06:40.999Z,99.90
2022-11-17T20:09:10.602Z,99.90
2022-11-17T20:11:39.624Z,99.90
2022-11-17T20:14:08.018Z,99.90
2022-11-17T20:16:38.296Z,99.90
2022-11-17T20:19:08.313Z,99.90
2022-11-17T20:21:36.648Z,99.90
2022-11-17T20:24:05.477Z,99.90
2022-11-17T20:26:35.450Z,99.80
2022-11-17T20:29:03.704Z,99.80
2022-11-17T20:31:33.423Z,99.80
2022-11-17T20:34:04.130Z,99.80
2022-11-17T20:36:35.410Z,99.90
2022-11-17T20:39:05.901Z,99.90
2022-11-17T20:41:34.228Z,99.90
2022-11-17T20:44:03.268Z,99.90
2022-11-17T20:46:31.467Z,99.90
2022-11-17T20:48:59.523Z,99.90
2022-11-17T20:51:28.156Z,99.90
2022-11-17T20:53:57.527Z,99.90
2022-11-17T20:56:25.646Z,99.90
2022-11-17T20:58:53.756Z,99.90
2022-11-17T21:01:23.980Z,99.90
2022-11-17T21:03:52.474Z,99.90
2022-11-17T21:06:23.023Z,99.90
2022-11-17T21:08:51.773Z,99.90
2022-11-17T21:11:40.365Z,99.90
2022-11-17T21:14:10.389Z,99.90
2022-11-17T21:16:39.948Z,99.90
2022-11-17T21:19:08.496Z,99.90
2022-11-17T21:21:37.442Z,99.90
2022-11-17T21:24:06.127Z,99.80
2022-11-17T21:26:36.016Z,99.90
2022-11-17T21:29:06.753Z,99.90
2022-11-17T21:31:35.608Z,99.90
2022-11-17T21:34:06.013Z,99.90
2022-11-17T21:36:35.834Z,99.90
2022-11-17T21:39:03.991Z,99.90
2022-11-17T21:41:35.581Z,99.80
2022-11-17T21:44:05.369Z,99.70
2022-11-17T21:46:36.052Z,99.70
2022-11-17T21:49:04.365Z,99.80
2022-11-17T21:51:34.198Z,99.80
2022-11-17T21:54:03.641Z,99.90
2022-11-17T21:56:32.239Z,99.90
2022-11-17T21:59:02.463Z,99.90
2022-11-17T22:01:32.573Z,99.80
2022-11-17T22:04:00.712Z,99.80
2022-11-17T22:06:30.275Z,99.80
2022-11-17T22:08:59.789Z,99.80
2022-11-17T22:11:39.008Z,99.70
2022-11-17T22:14:10.295Z,99.60
2022-11-17T22:16:41.973Z,99.60
2022-11-17T22:19:11.193Z,99.60
2022-11-17T22:21:39.843Z,99.60
2022-11-17T22:24:10.489Z,99.50
2022-11-17T22:26:41.036Z,99.40
2022-11-17T22:29:13.109Z,99.50
2022-11-17T22:31:43.045Z,99.40
2022-11-17T22:34:11.329Z,99.40
2022-11-17T22:36:39.515Z,99.50
2022-11-17T22:39:07.858Z,99.60
2022-11-17T22:41:36.090Z,99.70
2022-11-17T22:44:04.384Z,99.90
2022-11-17T22:46:32.447Z,99.90
2022-11-17T22:49:01.840Z,99.90
2022-11-17T22:51:47.563Z,99.90
2022-11-17T22:54:15.731Z,99.90
2022-11-17T22:56:43.827Z,99.90
2022-11-17T22:59:12.008Z,99.90
2022-11-17T23:01:40.155Z,99.90
2022-11-17T23:04:09.657Z,99.90
2022-11-17T23:06:37.799Z,99.90
2022-11-17T23:09:05.950Z,99.90
2022-11-17T23:11:38.292Z,99.90
2022-11-17T23:14:07.948Z,99.90
2022-11-17T23:16:37.560Z,99.90
2022-11-17T23:19:06.568Z,99.90
2022-11-17T23:21:36.083Z,99.90
2022-11-17T23:24:05.283Z,99.90
2022-11-17T23:26:33.384Z,99.70
2022-11-17T23:29:02.196Z,99.90
2022-11-17T23:31:30.287Z,99.90
2022-11-17T23:33:58.441Z,99.90
2022-11-17T23:36:26.474Z,99.90
2022-11-17T23:38:57.052Z,99.90
2022-11-17T23:41:25.159Z,99.90
2022-11-17T23:43:54.595Z,99.90
2022-11-17T23:46:24.602Z,99.90
2022-11-17T23:48:53.309Z,99.90
2022-11-17T23:51:23.054Z,99.90
2022-11-17T23:53:51.379Z,99.90
2022-11-17T23:56:21.514Z,99.90
2022-11-17T23:58:50.433Z,99.90
